Denis Sullivan — WDA2917 — position and weather

sailwx.info

Track history (hours):
 
Tides and Currents Weather Stations Pressure Air Temp Water Temp Dewpoint Dewpoint Depression Visibility Wind Speed Wind Dir Waves Ship Positions

Denis Sullivan (United States)

From her homeport of Discovery World in Milwaukee, the schooner offers educational day sails and private charters for people of all ages from May to September.

Ship's website: http://www.discoveryworld.org/denisSullivan.php

Owner: Discovery World Ltd., MILWAUKEE, WI. More information available from US FCC via Universal Licensing System and Coast Guard Vessel Documentation Center.

Last reported at 2016-Aug-27 04:33 UTC. Time now 2016-Aug-30 17:06 UTC.
Position N 45°17' W 085°45'.

Length 42 m.

Type: Sailing vessel. MMSI: 338327000.

Date/timePositionNaut miles runAvg speedWind from/ knotsBaromVisibWave heightAir tempDewpointWater temp
2016-Aug-27 04:33N 45°17' W 085°45'7 7.1
2016-Aug-27 03:33N 45°22' W 085°38'7 6.9
2016-Aug-27 02:34N 45°27' W 085°32'7 7.2
2016-Aug-27 01:33N 45°33' W 085°25'7 7.1
2016-Aug-27 00:34N 45°38' W 085°18'7 6.9
2016-Aug-26 23:33N 45°43' W 085°12'6 6.4
2016-Aug-26 22:33N 45°49' W 085°09'6 6.2
2016-Aug-26 21:33N 45°50' W 084°60'6 6.0
2016-Aug-26 20:34N 45°49' W 084°51'6 5.5
2016-Aug-26 19:32N 45°49' W 084°43'6 4.2
2016-Aug-26 18:14N 45°54' W 084°39'4 0.7
2016-Aug-26 12:25N 45°50' W 084°36'0 0.0
2016-Aug-26 11:31N 45°50' W 084°36'0 0.0
2016-Aug-26 10:31N 45°50' W 084°36'0 0.0
2016-Aug-26 09:13N 45°50' W 084°36'0 0.0
2016-Aug-26 07:31N 45°50' W 084°36'0 0.0
2016-Aug-26 06:28N 45°50' W 084°36'0 0.0
2016-Aug-26 04:25N 45°50' W 084°36'0 0.0
2016-Aug-26 03:16N 45°50' W 084°36'0 0.0
2016-Aug-26 02:31N 45°50' W 084°36'0 0.0
2016-Aug-26 01:31N 45°50' W 084°36'0 0.0
2016-Aug-26 00:13N 45°50' W 084°36'0 0.0
2016-Aug-25 23:25N 45°50' W 084°36'0 0.0
2016-Aug-25 22:04N 45°50' W 084°36'0 0.0
2016-Aug-25 21:31N 45°50' W 084°36'0 0.0
2016-Aug-25 19:28N 45°50' W 084°36'0 0.0
2016-Aug-25 17:31N 45°50' W 084°36'1 0.8
2016-Aug-25 16:33N 45°50' W 084°35'5 5.0
2016-Aug-25 15:33N 45°52' W 084°28'5 5.2
2016-Aug-25 14:33N 45°53' W 084°21'5 4.9
2016-Aug-25 13:33N 45°53' W 084°14'5 5.3
2016-Aug-25 12:34N 45°54' W 084°06'8 5.7
2016-Aug-25 11:08N 45°56' W 083°55'  
2016-Aug-22 19:33N 46°51' W 091°43'6 6.1
2016-Aug-22 18:33N 46°49' W 091°52'5 5.4
2016-Aug-22 17:33N 46°48' W 091°59'3 2.7
2016-Aug-22 16:33N 46°47' W 092°03'2 1.9
2016-Aug-22 15:33N 46°47' W 092°06'0 0.2
2016-Aug-22 14:33N 46°47' W 092°06'0 0.0
2016-Aug-20 21:12N 46°47' W 092°06'0 0.2
2016-Aug-20 20:27N 46°47' W 092°06'0 0.6
2016-Aug-20 19:33N 46°46' W 092°06'1 0.5
2016-Aug-20 18:26N 46°47' W 092°06'1 0.7
2016-Aug-20 17:33N 46°46' W 092°06'1 0.5
2016-Aug-20 16:27N 46°47' W 092°06'0 0.3
2016-Aug-20 15:27N 46°46' W 092°06'0 0.5
2016-Aug-20 14:33N 46°47' W 092°06'0 0.0
2016-Aug-20 13:33N 46°47' W 092°06'0 0.0
2016-Aug-20 12:33N 46°47' W 092°06'0 0.0
2016-Aug-20 11:33N 46°47' W 092°06'0 0.0
2016-Aug-20 10:33N 46°47' W 092°06'0 0.0
2016-Aug-20 09:33N 46°47' W 092°06'0 0.0
2016-Aug-20 08:32N 46°47' W 092°06'0 0.0
2016-Aug-20 07:33N 46°47' W 092°06'0 0.0
2016-Aug-20 06:33N 46°47' W 092°06'0 0.0
2016-Aug-20 05:33N 46°47' W 092°06'0 0.0
2016-Aug-20 04:33N 46°47' W 092°06'0 0.0
2016-Aug-20 03:33N 46°47' W 092°06'0 0.0
2016-Aug-20 02:33N 46°47' W 092°06'0 0.0
2016-Aug-20 01:33N 46°47' W 092°06'0 0.0
2016-Aug-20 00:33N 46°47' W 092°06'0 0.0
2016-Aug-19 23:33N 46°47' W 092°06'0 0.0
2016-Aug-19 22:33N 46°47' W 092°06'0 0.0
2016-Aug-19 21:33N 46°47' W 092°06'0 0.0
2016-Aug-19 20:33N 46°47' W 092°06'1 1.1
2016-Aug-19 19:33N 46°46' W 092°06'1 1.2
2016-Aug-19 18:33N 46°47' W 092°06'1 0.6
2016-Aug-19 17:33N 46°46' W 092°06'1 0.6
2016-Aug-19 16:33N 46°47' W 092°06'1 1.3
2016-Aug-19 15:33N 46°45' W 092°05'1 1.1
2016-Aug-19 14:26N 46°47' W 092°06'0 0.0
2016-Aug-19 13:33N 46°47' W 092°06'0 0.0
2016-Aug-19 12:33N 46°47' W 092°06'0 0.0
2016-Aug-19 11:33N 46°47' W 092°06'0 0.0
2016-Aug-19 10:33N 46°47' W 092°06'0 0.0
2016-Aug-19 09:34N 46°47' W 092°06'0 0.0
2016-Aug-19 08:33N 46°47' W 092°06'0 0.0
2016-Aug-19 07:34N 46°47' W 092°06'0 0.0
2016-Aug-19 06:33N 46°47' W 092°06'0 0.0
2016-Aug-19 05:33N 46°47' W 092°06'0 0.0
2016-Aug-19 04:33N 46°47' W 092°06'0 0.0
2016-Aug-19 03:33N 46°47' W 092°06'0 0.0
2016-Aug-19 02:33N 46°47' W 092°06'0 0.0
2016-Aug-19 01:33N 46°47' W 092°06'0 0.0
2016-Aug-19 00:33N 46°47' W 092°06'0 0.4
2016-Aug-18 23:33N 46°46' W 092°06'0 0.4
2016-Aug-18 22:29N 46°47' W 092°06'0 0.0
2016-Aug-18 21:29N 46°47' W 092°06'0 0.0
2016-Aug-18 20:17N 46°47' W 092°06'0 0.0
2016-Aug-18 19:32N 46°47' W 092°06'0 0.4
2016-Aug-18 18:33N 46°46' W 092°06'2 2.0
2016-Aug-18 17:33N 46°48' W 092°04'2 1.9
2016-Aug-18 16:32N 46°47' W 092°06'0 0.0
2016-Aug-18 15:32N 46°47' W 092°06'0 0.0
2016-Aug-18 14:32N 46°47' W 092°06'2 1.7
2016-Aug-18 13:33N 46°47' W 092°04'5 5.3
2016-Aug-18 12:33N 46°49' W 091°56'6 6.4
2016-Aug-18 11:33N 46°51' W 091°47'6 6.5
2016-Aug-18 10:33N 46°53' W 091°38'28 6.4
2016-Aug-18 06:11N 47°02' W 090°59'4 5.5
2016-Aug-18 05:31N 47°03' W 090°54'6 6.0
2016-Aug-18 04:33N 46°58' W 090°49'5 5.0
2016-Aug-18 03:34N 46°54' W 090°45'5 5.1
2016-Aug-18 02:33N 46°49' W 090°47'3 3.1
2016-Aug-18 01:33N 46°46' W 090°47'0 0.0
2016-Aug-18 00:34N 46°46' W 090°48'0 0.0
2016-Aug-17 23:34N 46°46' W 090°48'0 0.0
2016-Aug-17 22:33N 46°46' W 090°48'3 3.4
2016-Aug-17 21:33N 46°43' W 090°49'4 4.1
2016-Aug-17 20:33N 46°40' W 090°53'0 0.0
2016-Aug-17 19:33N 46°40' W 090°53'3 3.2
2016-Aug-17 18:34N 46°42' W 090°50'4 4.5
2016-Aug-17 17:34N 46°46' W 090°47'4 3.8
2016-Aug-17 16:33N 46°50' W 090°45'6 6.4
2016-Aug-17 15:33N 46°56' W 090°41'37 6.1
2016-Aug-17 09:28N 47°15' W 089°54'17 7.6
2016-Aug-17 07:16N 47°18' W 089°30'  
Track history (hours):
 
Tides and Currents Weather Stations Pressure Air Temp Water Temp Dewpoint Dewpoint Depression Visibility Wind Speed Wind Dir Waves Ship Positions

Denis Sullivan (United States)

From her homeport of Discovery World in Milwaukee, the schooner offers educational day sails and private charters for people of all ages from May to September.

Ship's website: http://www.discoveryworld.org/denisSullivan.php

Owner: Discovery World Ltd., MILWAUKEE, WI. More information available from US FCC via Universal Licensing System and Coast Guard Vessel Documentation Center.

Last reported at 2016-Aug-27 04:33 UTC. Time now 2016-Aug-30 17:06 UTC.
Position N 45°17' W 085°45'.

Length 42 m.

Type: Sailing vessel. MMSI: 338327000.

Date/timePositionNaut miles runAvg speedWind from/ knotsBaromVisibWave heightAir tempDewpointWater temp
2016-Aug-27 04:33N 45°17' W 085°45'7 7.1
2016-Aug-27 03:33N 45°22' W 085°38'7 6.9
2016-Aug-27 02:34N 45°27' W 085°32'7 7.2
2016-Aug-27 01:33N 45°33' W 085°25'7 7.1
2016-Aug-27 00:34N 45°38' W 085°18'7 6.9
2016-Aug-26 23:33N 45°43' W 085°12'6 6.4
2016-Aug-26 22:33N 45°49' W 085°09'6 6.2
2016-Aug-26 21:33N 45°50' W 084°60'6 6.0
2016-Aug-26 20:34N 45°49' W 084°51'6 5.5
2016-Aug-26 19:32N 45°49' W 084°43'6 4.2
2016-Aug-26 18:14N 45°54' W 084°39'4 0.7
2016-Aug-26 12:25N 45°50' W 084°36'0 0.0
2016-Aug-26 11:31N 45°50' W 084°36'0 0.0
2016-Aug-26 10:31N 45°50' W 084°36'0 0.0
2016-Aug-26 09:13N 45°50' W 084°36'0 0.0
2016-Aug-26 07:31N 45°50' W 084°36'0 0.0
2016-Aug-26 06:28N 45°50' W 084°36'0 0.0
2016-Aug-26 04:25N 45°50' W 084°36'0 0.0
2016-Aug-26 03:16N 45°50' W 084°36'0 0.0
2016-Aug-26 02:31N 45°50' W 084°36'0 0.0
2016-Aug-26 01:31N 45°50' W 084°36'0 0.0
2016-Aug-26 00:13N 45°50' W 084°36'0 0.0
2016-Aug-25 23:25N 45°50' W 084°36'0 0.0
2016-Aug-25 22:04N 45°50' W 084°36'0 0.0
2016-Aug-25 21:31N 45°50' W 084°36'0 0.0
2016-Aug-25 19:28N 45°50' W 084°36'0 0.0
2016-Aug-25 17:31N 45°50' W 084°36'1 0.8
2016-Aug-25 16:33N 45°50' W 084°35'5 5.0
2016-Aug-25 15:33N 45°52' W 084°28'5 5.2
2016-Aug-25 14:33N 45°53' W 084°21'5 4.9
2016-Aug-25 13:33N 45°53' W 084°14'5 5.3
2016-Aug-25 12:34N 45°54' W 084°06'8 5.7
2016-Aug-25 11:08N 45°56' W 083°55'  
2016-Aug-22 19:33N 46°51' W 091°43'6 6.1
2016-Aug-22 18:33N 46°49' W 091°52'5 5.4
2016-Aug-22 17:33N 46°48' W 091°59'3 2.7
2016-Aug-22 16:33N 46°47' W 092°03'2 1.9
2016-Aug-22 15:33N 46°47' W 092°06'0 0.2
2016-Aug-22 14:33N 46°47' W 092°06'0 0.0
2016-Aug-20 21:12N 46°47' W 092°06'0 0.2
2016-Aug-20 20:27N 46°47' W 092°06'0 0.6
2016-Aug-20 19:33N 46°46' W 092°06'1 0.5
2016-Aug-20 18:26N 46°47' W 092°06'1 0.7
2016-Aug-20 17:33N 46°46' W 092°06'1 0.5
2016-Aug-20 16:27N 46°47' W 092°06'0 0.3
2016-Aug-20 15:27N 46°46' W 092°06'0 0.5
2016-Aug-20 14:33N 46°47' W 092°06'0 0.0
2016-Aug-20 13:33N 46°47' W 092°06'0 0.0
2016-Aug-20 12:33N 46°47' W 092°06'0 0.0
2016-Aug-20 11:33N 46°47' W 092°06'0 0.0
2016-Aug-20 10:33N 46°47' W 092°06'0 0.0
2016-Aug-20 09:33N 46°47' W 092°06'0 0.0
2016-Aug-20 08:32N 46°47' W 092°06'0 0.0
2016-Aug-20 07:33N 46°47' W 092°06'0 0.0
2016-Aug-20 06:33N 46°47' W 092°06'0 0.0
2016-Aug-20 05:33N 46°47' W 092°06'0 0.0
2016-Aug-20 04:33N 46°47' W 092°06'0 0.0
2016-Aug-20 03:33N 46°47' W 092°06'0 0.0
2016-Aug-20 02:33N 46°47' W 092°06'0 0.0
2016-Aug-20 01:33N 46°47' W 092°06'0 0.0
2016-Aug-20 00:33N 46°47' W 092°06'0 0.0
2016-Aug-19 23:33N 46°47' W 092°06'0 0.0
2016-Aug-19 22:33N 46°47' W 092°06'0 0.0
2016-Aug-19 21:33N 46°47' W 092°06'0 0.0
2016-Aug-19 20:33N 46°47' W 092°06'1 1.1
2016-Aug-19 19:33N 46°46' W 092°06'1 1.2
2016-Aug-19 18:33N 46°47' W 092°06'1 0.6
2016-Aug-19 17:33N 46°46' W 092°06'1 0.6
2016-Aug-19 16:33N 46°47' W 092°06'1 1.3
2016-Aug-19 15:33N 46°45' W 092°05'1 1.1
2016-Aug-19 14:26N 46°47' W 092°06'0 0.0
2016-Aug-19 13:33N 46°47' W 092°06'0 0.0
2016-Aug-19 12:33N 46°47' W 092°06'0 0.0
2016-Aug-19 11:33N 46°47' W 092°06'0 0.0
2016-Aug-19 10:33N 46°47' W 092°06'0 0.0
2016-Aug-19 09:34N 46°47' W 092°06'0 0.0
2016-Aug-19 08:33N 46°47' W 092°06'0 0.0
2016-Aug-19 07:34N 46°47' W 092°06'0 0.0
2016-Aug-19 06:33N 46°47' W 092°06'0 0.0
2016-Aug-19 05:33N 46°47' W 092°06'0 0.0
2016-Aug-19 04:33N 46°47' W 092°06'0 0.0
2016-Aug-19 03:33N 46°47' W 092°06'0 0.0
2016-Aug-19 02:33N 46°47' W 092°06'0 0.0
2016-Aug-19 01:33N 46°47' W 092°06'0 0.0
2016-Aug-19 00:33N 46°47' W 092°06'0 0.4
2016-Aug-18 23:33N 46°46' W 092°06'0 0.4
2016-Aug-18 22:29N 46°47' W 092°06'0 0.0
2016-Aug-18 21:29N 46°47' W 092°06'0 0.0
2016-Aug-18 20:17N 46°47' W 092°06'0 0.0
2016-Aug-18 19:32N 46°47' W 092°06'0 0.4
2016-Aug-18 18:33N 46°46' W 092°06'2 2.0
2016-Aug-18 17:33N 46°48' W 092°04'2 1.9
2016-Aug-18 16:32N 46°47' W 092°06'0 0.0
2016-Aug-18 15:32N 46°47' W 092°06'0 0.0
2016-Aug-18 14:32N 46°47' W 092°06'2 1.7
2016-Aug-18 13:33N 46°47' W 092°04'5 5.3
2016-Aug-18 12:33N 46°49' W 091°56'6 6.4
2016-Aug-18 11:33N 46°51' W 091°47'6 6.5
2016-Aug-18 10:33N 46°53' W 091°38'28 6.4
2016-Aug-18 06:11N 47°02' W 090°59'4 5.5
2016-Aug-18 05:31N 47°03' W 090°54'6 6.0
2016-Aug-18 04:33N 46°58' W 090°49'5 5.0
2016-Aug-18 03:34N 46°54' W 090°45'5 5.1
2016-Aug-18 02:33N 46°49' W 090°47'3 3.1
2016-Aug-18 01:33N 46°46' W 090°47'0 0.0
2016-Aug-18 00:34N 46°46' W 090°48'0 0.0
2016-Aug-17 23:34N 46°46' W 090°48'0 0.0
2016-Aug-17 22:33N 46°46' W 090°48'3 3.4
2016-Aug-17 21:33N 46°43' W 090°49'4 4.1
2016-Aug-17 20:33N 46°40' W 090°53'0 0.0
2016-Aug-17 19:33N 46°40' W 090°53'3 3.2
2016-Aug-17 18:34N 46°42' W 090°50'4 4.5
2016-Aug-17 17:34N 46°46' W 090°47'4 3.8
2016-Aug-17 16:33N 46°50' W 090°45'6 6.4
2016-Aug-17 15:33N 46°56' W 090°41'37 6.1
2016-Aug-17 09:28N 47°15' W 089°54'17 7.6
2016-Aug-17 07:16N 47°18' W 089°30'  

Dump ship's entire track history